sensor_id;sensor_type;location;lat;lon;timestamp;temperature;humidity
42615;DHT22;28754;47.700;7.924;2023-04-21T00:00:18;2.80;99.90
42615;DHT22;28754;47.700;7.924;2023-04-21T00:03:05;2.90;99.90
42615;DHT22;28754;47.700;7.924;2023-04-21T00:05:52;2.90;99.90
42615;DHT22;28754;47.700;7.924;2023-04-21T00:08:41;2.90;99.90
42615;DHT22;28754;47.700;7.924;2023-04-21T00:11:28;2.80;99.90
42615;DHT22;28754;47.700;7.924;2023-04-21T00:14:14;2.80;99.90
42615;DHT22;28754;47.700;7.924;2023-04-21T00:17:01;2.90;99.90
42615;DHT22;28754;47.700;7.924;2023-04-21T00:19:48;2.90;99.90
42615;DHT22;28754;47.700;7.924;2023-04-21T00:22:34;2.80;99.90
42615;DHT22;28754;47.700;7.924;2023-04-21T00:25:22;2.80;99.90
42615;DHT22;28754;47.700;7.924;2023-04-21T00:28:09;2.80;99.90
42615;DHT22;28754;47.700;7.924;2023-04-21T00:30:57;2.80;99.90
42615;DHT22;28754;47.700;7.924;2023-04-21T00:33:45;2.80;99.90
42615;DHT22;28754;47.700;7.924;2023-04-21T00:36:32;2.80;99.90
42615;DHT22;28754;47.700;7.924;2023-04-21T00:39:18;2.80;99.90
42615;DHT22;28754;47.700;7.924;2023-04-21T00:42:06;2.90;99.90
42615;DHT22;28754;47.700;7.924;2023-04-21T00:44:55;2.90;99.90
42615;DHT22;28754;47.700;7.924;2023-04-21T00:47:43;2.90;99.90
42615;DHT22;28754;47.700;7.924;2023-04-21T00:50:32;2.90;99.90
42615;DHT22;28754;47.700;7.924;2023-04-21T00:53:19;3.00;99.90
42615;DHT22;28754;47.700;7.924;2023-04-21T00:56:07;3.00;99.90
42615;DHT22;28754;47.700;7.924;2023-04-21T00:58:57;3.00;99.90
42615;DHT22;28754;47.700;7.924;2023-04-21T01:01:44;3.00;99.90
42615;DHT22;28754;47.700;7.924;2023-04-21T01:04:31;3.00;99.90
42615;DHT22;28754;47.700;7.924;2023-04-21T01:07:24;3.00;99.90
42615;DHT22;28754;47.700;7.924;2023-04-21T01:10:11;3.00;99.90
42615;DHT22;28754;47.700;7.924;2023-04-21T01:12:58;3.00;99.90
42615;DHT22;28754;47.700;7.924;2023-04-21T01:15:44;2.90;99.90
42615;DHT22;28754;47.700;7.924;2023-04-21T01:18:31;3.00;99.90
42615;DHT22;28754;47.700;7.924;2023-04-21T01:21:19;2.90;99.90
42615;DHT22;28754;47.700;7.924;2023-04-21T01:24:07;2.90;99.90
42615;DHT22;28754;47.700;7.924;2023-04-21T01:26:53;2.90;99.90
42615;DHT22;28754;47.700;7.924;2023-04-21T01:29:41;2.90;99.90
42615;DHT22;28754;47.700;7.924;2023-04-21T01:32:29;2.90;99.90
42615;DHT22;28754;47.700;7.924;2023-04-21T01:35:16;2.90;99.90
42615;DHT22;28754;47.700;7.924;2023-04-21T01:38:03;2.90;99.90
42615;DHT22;28754;47.700;7.924;2023-04-21T01:40:52;2.90;99.90
42615;DHT22;28754;47.700;7.924;2023-04-21T01:43:40;3.00;99.90
42615;DHT22;28754;47.700;7.924;2023-04-21T01:46:27;3.00;99.90
42615;DHT22;28754;47.700;7.924;2023-04-21T01:49:13;3.00;99.90
42615;DHT22;28754;47.700;7.924;2023-04-21T01:52:00;3.10;99.90
42615;DHT22;28754;47.700;7.924;2023-04-21T01:54:47;3.10;99.90
42615;DHT22;28754;47.700;7.924;2023-04-21T01:57:34;3.10;99.90
42615;DHT22;28754;47.700;7.924;2023-04-21T02:00:23;3.20;99.90
42615;DHT22;28754;47.700;7.924;2023-04-21T02:03:11;3.20;99.90
42615;DHT22;28754;47.700;7.924;2023-04-21T02:05:57;3.30;99.90
42615;DHT22;28754;47.700;7.924;2023-04-21T02:08:44;3.30;99.90
42615;DHT22;28754;47.700;7.924;2023-04-21T02:11:31;3.20;99.90
42615;DHT22;28754;47.700;7.924;2023-04-21T02:14:17;3.30;99.90
42615;DHT22;28754;47.700;7.924;2023-04-21T02:17:04;3.30;99.90
42615;DHT22;28754;47.700;7.924;2023-04-21T02:19:52;3.30;99.90
42615;DHT22;28754;47.700;7.924;2023-04-21T02:22:41;3.30;99.90
42615;DHT22;28754;47.700;7.924;2023-04-21T02:25:27;3.30;99.90
42615;DHT22;28754;47.700;7.924;2023-04-21T02:28:15;3.30;99.90
42615;DHT22;28754;47.700;7.924;2023-04-21T02:31:01;3.30;99.90
42615;DHT22;28754;47.700;7.924;2023-04-21T02:33:48;3.30;99.90
42615;DHT22;28754;47.700;7.924;2023-04-21T02:36:35;3.20;99.90
42615;DHT22;28754;47.700;7.924;2023-04-21T02:39:21;3.30;99.90
42615;DHT22;28754;47.700;7.924;2023-04-21T02:42:08;3.30;99.90
42615;DHT22;28754;47.700;7.924;2023-04-21T02:44:55;3.30;99.90
42615;DHT22;28754;47.700;7.924;2023-04-21T02:47:41;3.20;99.90
42615;DHT22;28754;47.700;7.924;2023-04-21T02:50:28;3.20;99.90
42615;DHT22;28754;47.700;7.924;2023-04-21T02:53:15;3.20;99.90
42615;DHT22;28754;47.700;7.924;2023-04-21T02:56:02;3.20;99.90
42615;DHT22;28754;47.700;7.924;2023-04-21T02:58:50;3.20;99.90
42615;DHT22;28754;47.700;7.924;2023-04-21T03:01:37;3.30;99.90
42615;DHT22;28754;47.700;7.924;2023-04-21T03:04:24;3.30;99.90
42615;DHT22;28754;47.700;7.924;2023-04-21T03:07:14;3.30;99.90
42615;DHT22;28754;47.700;7.924;2023-04-21T03:10:01;3.30;99.90
42615;DHT22;28754;47.700;7.924;2023-04-21T03:12:48;3.30;99.90
42615;DHT22;28754;47.700;7.924;2023-04-21T03:15:34;3.40;99.90
42615;DHT22;28754;47.700;7.924;2023-04-21T03:18:21;3.30;99.90
42615;DHT22;28754;47.700;7.924;2023-04-21T03:21:09;3.30;99.90
42615;DHT22;28754;47.700;7.924;2023-04-21T03:23:56;3.30;99.90
42615;DHT22;28754;47.700;7.924;2023-04-21T03:26:43;3.30;99.90
42615;DHT22;28754;47.700;7.924;2023-04-21T03:29:30;3.30;99.90
42615;DHT22;28754;47.700;7.924;2023-04-21T03:32:16;3.30;99.90
42615;DHT22;28754;47.700;7.924;2023-04-21T03:35:03;3.30;99.90
42615;DHT22;28754;47.700;7.924;2023-04-21T03:37:50;3.30;99.90
42615;DHT22;28754;47.700;7.924;2023-04-21T03:40:37;3.30;99.90
42615;DHT22;28754;47.700;7.924;2023-04-21T03:43:24;3.30;99.90
42615;DHT22;28754;47.700;7.924;2023-04-21T03:46:21;3.30;99.90
42615;DHT22;28754;47.700;7.924;2023-04-21T03:49:07;3.30;99.90
42615;DHT22;28754;47.700;7.924;2023-04-21T03:51:54;3.30;99.90
42615;DHT22;28754;47.700;7.924;2023-04-21T03:54:41;3.40;99.90
42615;DHT22;28754;47.700;7.924;2023-04-21T03:57:27;3.50;99.90
42615;DHT22;28754;47.700;7.924;2023-04-21T04:00:14;3.60;99.90
42615;DHT22;28754;47.700;7.924;2023-04-21T04:03:01;3.50;99.90
42615;DHT22;28754;47.700;7.924;2023-04-21T04:05:47;3.50;99.90
42615;DHT22;28754;47.700;7.924;2023-04-21T04:08:34;3.50;99.90
42615;DHT22;28754;47.700;7.924;2023-04-21T04:11:21;3.50;99.90
42615;DHT22;28754;47.700;7.924;2023-04-21T04:14:08;3.60;99.90
42615;DHT22;28754;47.700;7.924;2023-04-21T04:16:54;3.60;99.90
42615;DHT22;28754;47.700;7.924;2023-04-21T04:19:41;3.70;99.90
42615;DHT22;28754;47.700;7.924;2023-04-21T04:22:28;3.70;99.90
42615;DHT22;28754;47.700;7.924;2023-04-21T04:25:15;3.80;99.90
42615;DHT22;28754;47.700;7.924;2023-04-21T04:28:02;3.80;99.90
42615;DHT22;28754;47.700;7.924;2023-04-21T04:30:48;3.80;99.90
42615;DHT22;28754;47.700;7.924;2023-04-21T04:33:35;3.80;99.90
42615;DHT22;28754;47.700;7.924;2023-04-21T04:36:23;3.80;99.90
42615;DHT22;28754;47.700;7.924;2023-04-21T04:39:10;3.80;99.90
42615;DHT22;28754;47.700;7.924;2023-04-21T04:41:57;3.90;99.90
42615;DHT22;28754;47.700;7.924;2023-04-21T04:44:45;3.80;99.90
42615;DHT22;28754;47.700;7.924;2023-04-21T04:47:32;3.90;99.90
42615;DHT22;28754;47.700;7.924;2023-04-21T04:50:22;3.90;99.90
42615;DHT22;28754;47.700;7.924;2023-04-21T04:53:09;4.00;99.90
42615;DHT22;28754;47.700;7.924;2023-04-21T04:55:57;4.10;99.90
42615;DHT22;28754;47.700;7.924;2023-04-21T04:58:44;4.10;99.90
42615;DHT22;28754;47.700;7.924;2023-04-21T05:01:34;4.20;99.90
42615;DHT22;28754;47.700;7.924;2023-04-21T05:04:20;4.20;99.90
42615;DHT22;28754;47.700;7.924;2023-04-21T05:07:07;4.20;99.90
42615;DHT22;28754;47.700;7.924;2023-04-21T05:09:54;4.30;99.90
42615;DHT22;28754;47.700;7.924;2023-04-21T05:12:40;4.30;99.90
42615;DHT22;28754;47.700;7.924;2023-04-21T05:15:27;4.40;99.90
42615;DHT22;28754;47.700;7.924;2023-04-21T05:18:14;4.40;99.90
42615;DHT22;28754;47.700;7.924;2023-04-21T05:21:01;4.50;99.90
42615;DHT22;28754;47.700;7.924;2023-04-21T05:23:47;4.60;99.90
42615;DHT22;28754;47.700;7.924;2023-04-21T05:26:34;4.60;99.90
42615;DHT22;28754;47.700;7.924;2023-04-21T05:29:21;4.70;99.90
42615;DHT22;28754;47.700;7.924;2023-04-21T05:32:08;4.70;99.90
42615;DHT22;28754;47.700;7.924;2023-04-21T05:34:54;4.80;99.90
42615;DHT22;28754;47.700;7.924;2023-04-21T05:37:41;4.90;99.90
42615;DHT22;28754;47.700;7.924;2023-04-21T05:40:28;5.10;99.90
42615;DHT22;28754;47.700;7.924;2023-04-21T05:43:15;5.20;99.90
42615;DHT22;28754;47.700;7.924;2023-04-21T05:46:07;5.30;99.90
42615;DHT22;28754;47.700;7.924;2023-04-21T05:48:58;5.40;99.90
42615;DHT22;28754;47.700;7.924;2023-04-21T05:51:45;5.50;99.90
42615;DHT22;28754;47.700;7.924;2023-04-21T05:54:32;5.50;99.90
42615;DHT22;28754;47.700;7.924;2023-04-21T05:57:19;5.60;99.90
42615;DHT22;28754;47.700;7.924;2023-04-21T06:00:08;5.70;99.90
42615;DHT22;28754;47.700;7.924;2023-04-21T06:02:58;5.80;99.90
42615;DHT22;28754;47.700;7.924;2023-04-21T06:05:45;5.90;99.90
42615;DHT22;28754;47.700;7.924;2023-04-21T06:08:32;6.00;99.90
42615;DHT22;28754;47.700;7.924;2023-04-21T06:11:19;6.10;99.90
42615;DHT22;28754;47.700;7.924;2023-04-21T06:14:06;6.20;99.90
42615;DHT22;28754;47.700;7.924;2023-04-21T06:16:57;6.40;99.90
42615;DHT22;28754;47.700;7.924;2023-04-21T06:19:44;6.50;99.90
42615;DHT22;28754;47.700;7.924;2023-04-21T06:22:30;6.60;99.90
42615;DHT22;28754;47.700;7.924;2023-04-21T06:25:18;6.70;99.90
42615;DHT22;28754;47.700;7.924;2023-04-21T06:28:05;6.80;99.90
42615;DHT22;28754;47.700;7.924;2023-04-21T06:30:52;6.90;99.90
42615;DHT22;28754;47.700;7.924;2023-04-21T06:33:38;6.90;99.90
42615;DHT22;28754;47.700;7.924;2023-04-21T06:36:25;7.00;99.90
42615;DHT22;28754;47.700;7.924;2023-04-21T06:39:12;7.10;99.90
42615;DHT22;28754;47.700;7.924;2023-04-21T06:41:59;7.20;99.90
42615;DHT22;28754;47.700;7.924;2023-04-21T06:44:46;7.30;99.90
42615;DHT22;28754;47.700;7.924;2023-04-21T06:47:33;7.30;99.90
42615;DHT22;28754;47.700;7.924;2023-04-21T06:50:20;7.50;99.90
42615;DHT22;28754;47.700;7.924;2023-04-21T06:53:09;7.60;99.90
42615;DHT22;28754;47.700;7.924;2023-04-21T06:55:56;7.80;99.90
42615;DHT22;28754;47.700;7.924;2023-04-21T06:58:43;7.70;99.90
42615;DHT22;28754;47.700;7.924;2023-04-21T07:01:32;7.70;99.90
42615;DHT22;28754;47.700;7.924;2023-04-21T07:04:18;7.70;99.90
42615;DHT22;28754;47.700;7.924;2023-04-21T07:07:05;7.80;99.90
42615;DHT22;28754;47.700;7.924;2023-04-21T07:09:52;7.80;99.90
42615;DHT22;28754;47.700;7.924;2023-04-21T07:12:38;7.90;99.90
42615;DHT22;28754;47.700;7.924;2023-04-21T07:15:25;8.00;99.90
42615;DHT22;28754;47.700;7.924;2023-04-21T07:18:12;8.00;99.90
42615;DHT22;28754;47.700;7.924;2023-04-21T07:21:07;8.10;99.90
42615;DHT22;28754;47.700;7.924;2023-04-21T07:23:59;8.20;99.90
42615;DHT22;28754;47.700;7.924;2023-04-21T07:26:49;8.30;99.90
42615;DHT22;28754;47.700;7.924;2023-04-21T07:29:35;8.40;99.90
42615;DHT22;28754;47.700;7.924;2023-04-21T07:32:28;8.50;99.90
42615;DHT22;28754;47.700;7.924;2023-04-21T07:35:15;8.70;99.90
42615;DHT22;28754;47.700;7.924;2023-04-21T07:38:02;8.80;99.90
42615;DHT22;28754;47.700;7.924;2023-04-21T07:41:00;8.90;99.90
42615;DHT22;28754;47.700;7.924;2023-04-21T07:43:52;9.00;99.90
42615;DHT22;28754;47.700;7.924;2023-04-21T07:46:40;9.00;99.90
42615;DHT22;28754;47.700;7.924;2023-04-21T07:49:27;9.10;99.90
42615;DHT22;28754;47.700;7.924;2023-04-21T07:52:16;9.30;99.90
42615;DHT22;28754;47.700;7.924;2023-04-21T07:55:03;9.50;99.90
42615;DHT22;28754;47.700;7.924;2023-04-21T07:57:53;9.60;99.90
42615;DHT22;28754;47.700;7.924;2023-04-21T08:00:40;9.70;99.90
42615;DHT22;28754;47.700;7.924;2023-04-21T08:03:26;9.90;99.90
42615;DHT22;28754;47.700;7.924;2023-04-21T08:06:13;9.90;99.90
42615;DHT22;28754;47.700;7.924;2023-04-21T08:09:00;9.90;99.90
42615;DHT22;28754;47.700;7.924;2023-04-21T08:11:46;10.10;99.90
42615;DHT22;28754;47.700;7.924;2023-04-21T08:14:33;10.30;99.90
42615;DHT22;28754;47.700;7.924;2023-04-21T08:17:20;10.30;99.90
42615;DHT22;28754;47.700;7.924;2023-04-21T08:20:07;10.40;99.90
42615;DHT22;28754;47.700;7.924;2023-04-21T08:22:54;10.50;99.90
42615;DHT22;28754;47.700;7.924;2023-04-21T08:25:41;10.70;99.90
42615;DHT22;28754;47.700;7.924;2023-04-21T08:32:04;11.00;99.90
42615;DHT22;28754;47.700;7.924;2023-04-21T08:34:54;11.10;99.90
42615;DHT22;28754;47.700;7.924;2023-04-21T08:37:41;11.10;99.90
42615;DHT22;28754;47.700;7.924;2023-04-21T08:40:32;11.10;99.90
42615;DHT22;28754;47.700;7.924;2023-04-21T08:43:21;11.20;99.90
42615;DHT22;28754;47.700;7.924;2023-04-21T08:46:15;11.50;99.90
42615;DHT22;28754;47.700;7.924;2023-04-21T08:49:02;11.80;99.90
42615;DHT22;28754;47.700;7.924;2023-04-21T08:51:49;12.00;99.90
42615;DHT22;28754;47.700;7.924;2023-04-21T08:54:36;12.30;99.90
42615;DHT22;28754;47.700;7.924;2023-04-21T08:57:24;12.60;99.90
42615;DHT22;28754;47.700;7.924;2023-04-21T09:00:11;12.50;99.90
42615;DHT22;28754;47.700;7.924;2023-04-21T09:03:01;12.30;99.90
42615;DHT22;28754;47.700;7.924;2023-04-21T09:06:00;12.20;99.90
42615;DHT22;28754;47.700;7.924;2023-04-21T09:08:54;12.20;99.90
42615;DHT22;28754;47.700;7.924;2023-04-21T09:11:41;12.20;99.90
42615;DHT22;28754;47.700;7.924;2023-04-21T09:14:31;11.90;99.90
42615;DHT22;28754;47.700;7.924;2023-04-21T09:17:21;11.80;99.90
42615;DHT22;28754;47.700;7.924;2023-04-21T09:20:16;11.50;99.90
42615;DHT22;28754;47.700;7.924;2023-04-21T09:23:04;11.70;99.90
42615;DHT22;28754;47.700;7.924;2023-04-21T09:25:53;11.50;99.90
42615;DHT22;28754;47.700;7.924;2023-04-21T09:28:41;11.70;99.90
42615;DHT22;28754;47.700;7.924;2023-04-21T09:31:34;12.00;99.90
42615;DHT22;28754;47.700;7.924;2023-04-21T09:34:23;12.20;99.90
42615;DHT22;28754;47.700;7.924;2023-04-21T09:37:12;12.50;99.90
42615;DHT22;28754;47.700;7.924;2023-04-21T09:39:59;12.90;99.90
42615;DHT22;28754;47.700;7.924;2023-04-21T09:42:46;12.70;99.90
42615;DHT22;28754;47.700;7.924;2023-04-21T09:45:33;12.20;99.90
42615;DHT22;28754;47.700;7.924;2023-04-21T09:48:21;12.00;99.90
42615;DHT22;28754;47.700;7.924;2023-04-21T09:51:12;11.80;99.90
42615;DHT22;28754;47.700;7.924;2023-04-21T09:54:16;11.60;99.90
42615;DHT22;28754;47.700;7.924;2023-04-21T09:57:05;11.60;99.90
42615;DHT22;28754;47.700;7.924;2023-04-21T10:00:00;11.90;99.90
42615;DHT22;28754;47.700;7.924;2023-04-21T10:02:54;12.10;99.90
42615;DHT22;28754;47.700;7.924;2023-04-21T10:05:46;12.50;99.90
42615;DHT22;28754;47.700;7.924;2023-04-21T10:08:34;12.60;99.90
42615;DHT22;28754;47.700;7.924;2023-04-21T10:11:22;12.40;99.90
42615;DHT22;28754;47.700;7.924;2023-04-21T10:14:09;12.40;99.90
42615;DHT22;28754;47.700;7.924;2023-04-21T10:17:06;12.50;99.90
42615;DHT22;28754;47.700;7.924;2023-04-21T10:55:47;13.20;99.90
42615;DHT22;28754;47.700;7.924;2023-04-21T11:04:21;12.70;99.90
42615;DHT22;28754;47.700;7.924;2023-04-21T11:34:05;13.90;99.90
42615;DHT22;28754;47.700;7.924;2023-04-21T11:36:57;13.40;99.90
42615;DHT22;28754;47.700;7.924;2023-04-21T11:40:20;13.30;99.90
42615;DHT22;28754;47.700;7.924;2023-04-21T11:43:07;12.90;99.90
42615;DHT22;28754;47.700;7.924;2023-04-21T11:45:54;12.60;99.90
42615;DHT22;28754;47.700;7.924;2023-04-21T11:52:03;12.30;99.90
42615;DHT22;28754;47.700;7.924;2023-04-21T11:55:18;12.10;99.90
42615;DHT22;28754;47.700;7.924;2023-04-21T11:58:50;11.80;99.90
42615;DHT22;28754;47.700;7.924;2023-04-21T12:02:01;11.70;99.90
42615;DHT22;28754;47.700;7.924;2023-04-21T12:07:50;11.50;99.90
42615;DHT22;28754;47.700;7.924;2023-04-21T12:10:45;11.60;99.90
42615;DHT22;28754;47.700;7.924;2023-04-21T12:13:33;11.60;99.90
42615;DHT22;28754;47.700;7.924;2023-04-21T12:16:23;12.00;99.90
42615;DHT22;28754;47.700;7.924;2023-04-21T12:19:33;12.20;99.90
42615;DHT22;28754;47.700;7.924;2023-04-21T12:22:21;12.60;99.90
42615;DHT22;28754;47.700;7.924;2023-04-21T12:25:08;13.00;99.90
42615;DHT22;28754;47.700;7.924;2023-04-21T12:27:58;13.50;99.90
42615;DHT22;28754;47.700;7.924;2023-04-21T12:30:50;13.50;99.90
42615;DHT22;28754;47.700;7.924;2023-04-21T12:33:37;13.50;99.90
42615;DHT22;28754;47.700;7.924;2023-04-21T12:36:23;13.40;99.90
42615;DHT22;28754;47.700;7.924;2023-04-21T12:39:10;13.30;99.90
42615;DHT22;28754;47.700;7.924;2023-04-21T12:41:58;13.20;99.90
42615;DHT22;28754;47.700;7.924;2023-04-21T12:44:45;13.40;99.90
42615;DHT22;28754;47.700;7.924;2023-04-21T12:47:32;13.40;99.90
42615;DHT22;28754;47.700;7.924;2023-04-21T12:50:19;13.70;99.90
42615;DHT22;28754;47.700;7.924;2023-04-21T12:53:06;13.70;99.90
42615;DHT22;28754;47.700;7.924;2023-04-21T12:55:53;14.00;99.90
42615;DHT22;28754;47.700;7.924;2023-04-21T12:58:39;13.70;99.90
42615;DHT22;28754;47.700;7.924;2023-04-21T13:01:27;13.50;99.90
42615;DHT22;28754;47.700;7.924;2023-04-21T13:04:14;13.20;99.90
42615;DHT22;28754;47.700;7.924;2023-04-21T13:07:01;13.10;99.90
42615;DHT22;28754;47.700;7.924;2023-04-21T13:09:48;13.00;99.90
42615;DHT22;28754;47.700;7.924;2023-04-21T13:12:34;12.90;99.90
42615;DHT22;28754;47.700;7.924;2023-04-21T13:15:21;12.90;99.90
42615;DHT22;28754;47.700;7.924;2023-04-21T13:18:08;12.70;99.90
42615;DHT22;28754;47.700;7.924;2023-04-21T13:20:54;12.60;99.90
42615;DHT22;28754;47.700;7.924;2023-04-21T13:23:41;12.50;99.90
42615;DHT22;28754;47.700;7.924;2023-04-21T13:26:29;12.40;99.90
42615;DHT22;28754;47.700;7.924;2023-04-21T13:29:19;12.30;99.90
42615;DHT22;28754;47.700;7.924;2023-04-21T13:32:06;12.50;99.90
42615;DHT22;28754;47.700;7.924;2023-04-21T13:34:53;12.70;99.90
42615;DHT22;28754;47.700;7.924;2023-04-21T13:37:40;12.70;99.90
42615;DHT22;28754;47.700;7.924;2023-04-21T13:40:27;12.50;99.90
42615;DHT22;28754;47.700;7.924;2023-04-21T13:43:14;12.20;99.90
42615;DHT22;28754;47.700;7.924;2023-04-21T13:46:19;12.10;99.90
42615;DHT22;28754;47.700;7.924;2023-04-21T13:49:06;11.90;99.90
42615;DHT22;28754;47.700;7.924;2023-04-21T13:51:53;11.90;99.90
42615;DHT22;28754;47.700;7.924;2023-04-21T13:54:39;12.00;99.90
42615;DHT22;28754;47.700;7.924;2023-04-21T13:57:26;12.00;99.90
42615;DHT22;28754;47.700;7.924;2023-04-21T14:00:13;11.50;99.90
42615;DHT22;28754;47.700;7.924;2023-04-21T14:03:01;11.70;99.90
42615;DHT22;28754;47.700;7.924;2023-04-21T14:05:47;11.70;99.90
42615;DHT22;28754;47.700;7.924;2023-04-21T14:08:34;11.80;99.90
42615;DHT22;28754;47.700;7.924;2023-04-21T14:11:21;11.80;99.90
42615;DHT22;28754;47.700;7.924;2023-04-21T14:14:08;11.70;99.90
42615;DHT22;28754;47.700;7.924;2023-04-21T14:16:55;11.70;99.90
42615;DHT22;28754;47.700;7.924;2023-04-21T14:19:41;11.60;99.90
42615;DHT22;28754;47.700;7.924;2023-04-21T14:22:32;11.50;99.90
42615;DHT22;28754;47.700;7.924;2023-04-21T14:25:21;11.50;99.90
42615;DHT22;28754;47.700;7.924;2023-04-21T14:28:08;11.60;99.90
42615;DHT22;28754;47.700;7.924;2023-04-21T14:30:55;11.70;99.90
42615;DHT22;28754;47.700;7.924;2023-04-21T14:33:41;11.70;99.90
42615;DHT22;28754;47.700;7.924;2023-04-21T14:36:31;11.80;99.90
42615;DHT22;28754;47.700;7.924;2023-04-21T14:39:17;11.90;99.90
42615;DHT22;28754;47.700;7.924;2023-04-21T14:42:04;12.20;99.90
42615;DHT22;28754;47.700;7.924;2023-04-21T14:44:51;12.60;99.90
42615;DHT22;28754;47.700;7.924;2023-04-21T14:47:38;12.60;99.90
42615;DHT22;28754;47.700;7.924;2023-04-21T14:50:25;12.40;99.90
42615;DHT22;28754;47.700;7.924;2023-04-21T14:53:11;12.20;99.90
42615;DHT22;28754;47.700;7.924;2023-04-21T14:55:59;12.10;99.90
42615;DHT22;28754;47.700;7.924;2023-04-21T14:58:45;12.20;99.90
42615;DHT22;28754;47.700;7.924;2023-04-21T15:01:32;12.20;99.90
42615;DHT22;28754;47.700;7.924;2023-04-21T15:04:19;12.20;99.90
42615;DHT22;28754;47.700;7.924;2023-04-21T15:07:05;12.30;99.90
42615;DHT22;28754;47.700;7.924;2023-04-21T15:10:00;12.30;99.90
42615;DHT22;28754;47.700;7.924;2023-04-21T15:12:53;12.30;99.90
42615;DHT22;28754;47.700;7.924;2023-04-21T15:15:40;12.40;99.90
42615;DHT22;28754;47.700;7.924;2023-04-21T15:18:44;12.40;99.90
42615;DHT22;28754;47.700;7.924;2023-04-21T15:21:30;12.50;99.90
42615;DHT22;28754;47.700;7.924;2023-04-21T15:24:20;12.50;99.90
42615;DHT22;28754;47.700;7.924;2023-04-21T15:27:14;12.50;99.90
42615;DHT22;28754;47.700;7.924;2023-04-21T15:30:06;12.40;99.90
42615;DHT22;28754;47.700;7.924;2023-04-21T15:33:09;12.40;99.90
42615;DHT22;28754;47.700;7.924;2023-04-21T15:36:07;12.40;99.90
42615;DHT22;28754;47.700;7.924;2023-04-21T15:39:45;12.40;99.90
42615;DHT22;28754;47.700;7.924;2023-04-21T15:42:40;12.40;99.90
42615;DHT22;28754;47.700;7.924;2023-04-21T15:46:01;12.20;99.90
42615;DHT22;28754;47.700;7.924;2023-04-21T15:49:22;12.20;99.90
42615;DHT22;28754;47.700;7.924;2023-04-21T15:53:11;12.10;99.90
42615;DHT22;28754;47.700;7.924;2023-04-21T16:01:03;11.90;99.90
42615;DHT22;28754;47.700;7.924;2023-04-21T16:03:55;11.70;99.90
42615;DHT22;28754;47.700;7.924;2023-04-21T16:11:07;11.80;99.90
42615;DHT22;28754;47.700;7.924;2023-04-21T16:26:22;11.70;99.90
42615;DHT22;28754;47.700;7.924;2023-04-21T16:37:50;11.50;99.90
42615;DHT22;28754;47.700;7.924;2023-04-21T16:49:05;11.50;99.90
42615;DHT22;28754;47.700;7.924;2023-04-21T16:52:34;11.40;99.90
42615;DHT22;28754;47.700;7.924;2023-04-21T17:13:31;11.00;99.90
42615;DHT22;28754;47.700;7.924;2023-04-21T17:17:30;11.20;99.90
42615;DHT22;28754;47.700;7.924;2023-04-21T17:21:41;11.20;99.90
42615;DHT22;28754;47.700;7.924;2023-04-21T17:25:23;11.20;99.90
42615;DHT22;28754;47.700;7.924;2023-04-21T17:28:10;11.20;99.90
42615;DHT22;28754;47.700;7.924;2023-04-21T17:31:26;11.10;99.90
42615;DHT22;28754;47.700;7.924;2023-04-21T17:37:41;11.00;99.90
42615;DHT22;28754;47.700;7.924;2023-04-21T17:40:55;11.00;99.90
42615;DHT22;28754;47.700;7.924;2023-04-21T17:43:44;11.00;99.90
42615;DHT22;28754;47.700;7.924;2023-04-21T17:46:31;10.90;99.90
42615;DHT22;28754;47.700;7.924;2023-04-21T17:49:26;10.80;99.90
42615;DHT22;28754;47.700;7.924;2023-04-21T17:52:13;10.80;99.90
42615;DHT22;28754;47.700;7.924;2023-04-21T17:55:03;10.70;99.90
42615;DHT22;28754;47.700;7.924;2023-04-21T17:58:10;10.50;99.90
42615;DHT22;28754;47.700;7.924;2023-04-21T18:01:10;10.50;99.90
42615;DHT22;28754;47.700;7.924;2023-04-21T18:04:07;10.50;99.90
42615;DHT22;28754;47.700;7.924;2023-04-21T18:07:14;10.40;99.90
42615;DHT22;28754;47.700;7.924;2023-04-21T18:10:16;10.40;99.90
42615;DHT22;28754;47.700;7.924;2023-04-21T18:13:18;10.40;99.90
42615;DHT22;28754;47.700;7.924;2023-04-21T18:16:13;10.30;99.90
42615;DHT22;28754;47.700;7.924;2023-04-21T18:19:00;10.20;99.90
42615;DHT22;28754;47.700;7.924;2023-04-21T18:21:51;10.20;99.90
42615;DHT22;28754;47.700;7.924;2023-04-21T18:24:42;10.20;99.90
42615;DHT22;28754;47.700;7.924;2023-04-21T18:27:41;10.20;99.90
42615;DHT22;28754;47.700;7.924;2023-04-21T18:30:31;10.10;99.90
42615;DHT22;28754;47.700;7.924;2023-04-21T18:33:18;10.20;99.90
42615;DHT22;28754;47.700;7.924;2023-04-21T18:36:08;10.20;99.90
42615;DHT22;28754;47.700;7.924;2023-04-21T18:38:55;10.30;99.90
42615;DHT22;28754;47.700;7.924;2023-04-21T18:41:42;10.30;99.90
42615;DHT22;28754;47.700;7.924;2023-04-21T18:44:33;10.30;99.90
42615;DHT22;28754;47.700;7.924;2023-04-21T18:47:23;10.30;99.90
42615;DHT22;28754;47.700;7.924;2023-04-21T18:50:22;10.30;99.90
42615;DHT22;28754;47.700;7.924;2023-04-21T18:53:16;10.30;99.90
42615;DHT22;28754;47.700;7.924;2023-04-21T18:59:55;10.30;99.90
42615;DHT22;28754;47.700;7.924;2023-04-21T19:03:21;10.30;99.90
42615;DHT22;28754;47.700;7.924;2023-04-21T19:10:14;10.20;99.90
42615;DHT22;28754;47.700;7.924;2023-04-21T19:13:33;10.20;99.90
42615;DHT22;28754;47.700;7.924;2023-04-21T19:16:39;10.20;99.90
42615;DHT22;28754;47.700;7.924;2023-04-21T19:20:10;10.30;99.90
42615;DHT22;28754;47.700;7.924;2023-04-21T19:23:08;10.30;99.90
42615;DHT22;28754;47.700;7.924;2023-04-21T19:26:07;10.30;99.90
42615;DHT22;28754;47.700;7.924;2023-04-21T19:29:23;10.20;99.90
42615;DHT22;28754;47.700;7.924;2023-04-21T19:33:19;10.20;99.90
42615;DHT22;28754;47.700;7.924;2023-04-21T19:37:11;10.20;99.90
42615;DHT22;28754;47.700;7.924;2023-04-21T19:44:38;10.10;99.90
42615;DHT22;28754;47.700;7.924;2023-04-21T19:48:03;10.10;99.90
42615;DHT22;28754;47.700;7.924;2023-04-21T19:50:58;10.10;99.90
42615;DHT22;28754;47.700;7.924;2023-04-21T19:54:13;10.00;99.90
42615;DHT22;28754;47.700;7.924;2023-04-21T19:57:41;10.10;99.90
42615;DHT22;28754;47.700;7.924;2023-04-21T20:00:34;10.00;99.90
42615;DHT22;28754;47.700;7.924;2023-04-21T20:03:54;10.00;99.90
42615;DHT22;28754;47.700;7.924;2023-04-21T20:07:56;10.00;99.90
42615;DHT22;28754;47.700;7.924;2023-04-21T20:10:46;10.00;99.90
42615;DHT22;28754;47.700;7.924;2023-04-21T20:13:33;10.00;99.90
42615;DHT22;28754;47.700;7.924;2023-04-21T20:16:26;10.10;99.90
42615;DHT22;28754;47.700;7.924;2023-04-21T20:19:16;10.00;99.90
42615;DHT22;28754;47.700;7.924;2023-04-21T20:22:19;10.00;99.90
42615;DHT22;28754;47.700;7.924;2023-04-21T20:29:41;9.90;99.90
42615;DHT22;28754;47.700;7.924;2023-04-21T20:32:36;9.90;99.90
42615;DHT22;28754;47.700;7.924;2023-04-21T20:35:26;9.80;99.90
42615;DHT22;28754;47.700;7.924;2023-04-21T20:38:15;9.80;99.90
42615;DHT22;28754;47.700;7.924;2023-04-21T20:41:14;9.80;99.90
42615;DHT22;28754;47.700;7.924;2023-04-21T20:44:09;9.80;99.90
42615;DHT22;28754;47.700;7.924;2023-04-21T20:47:06;9.80;99.90